Terminal Aerodrome Forecast
Issued by NWS Goodland, KS

Home | Current Version | Previous Version | Text Only | Print | Product List | Glossary On
Versions: 1 2 3 4 5 6 7 8 9 10 11 12 13 14 15 16 17
000
FTUS43 KGLD 260400 AAB
TAFGLD
TAF AMD
KGLD 260452Z 2605/2624 22011G23KT P6SM VCTS FEW060 OVC110CB
     FM260600 26010KT P6SM FEW110
     FM261700 35015KT P6SM FEW200=

USA.gov is the U.S. government's official web portal to all federal, state and local government web resources and services.